Time;durP1;ratioP1;P1;durP2;ratioP2;P2;SDS_P1;SDS_P2;PMS_P1;PMS_P2;Temp;Humidity;BMP_temperature;BMP_pressure;BME280_temperature;BME280_humidity;BME280_pressure;Samples;Min_cycle;Max_cycle;Signal;HPM_P1;HPM_P2
2022/06/26 00:02:32;;;;;;;3.90;3.20;;;;;19.80;100553.00;;;;4947705;28;20272;-70
2022/06/26 00:05:18;;;;;;;5.27;3.70;;;;;19.80;100552.00;;;;4947031;28;20705;-72
2022/06/26 00:08:06;;;;;;;6.10;3.37;;;;;20.10;100632.00;;;;4943388;29;20337;-71
2022/06/26 00:10:52;;;;;;;5.23;3.73;;;;;20.20;100611.00;;;;4944945;28;20259;-71
2022/06/26 00:13:39;;;;;;;4.73;3.50;;;;;20.40;100625.00;;;;4942495;29;20876;-75
2022/06/26 00:16:27;;;;;;;4.57;3.77;;;;;20.60;100623.00;;;;4945725;28;20598;-69
2022/06/26 00:19:13;;;;;;;6.27;3.43;;;;;20.60;100646.00;;;;4946759;29;20345;-70
2022/06/26 00:22:00;;;;;;;5.77;4.57;;;;;20.70;100642.00;;;;4944610;28;20353;-69
2022/06/26 00:24:46;;;;;;;5.63;4.83;;;;;20.60;100642.00;;;;4941881;28;20252;-70
2022/06/26 00:27:32;;;;;;;8.07;5.57;;;;;20.70;100642.00;;;;4945626;28;20220;-72
2022/06/26 00:30:20;;;;;;;9.97;6.33;;;;;20.70;100646.00;;;;4946204;28;20236;-71
2022/06/26 00:33:08;;;;;;;11.00;6.30;;;;;20.70;100649.00;;;;4949324;28;20212;-69
2022/06/26 00:35:54;;;;;;;8.93;7.17;;;;;20.70;100650.00;;;;4948021;28;20232;-70
2022/06/26 00:38:41;;;;;;;7.37;6.27;;;;;20.70;100634.00;;;;4950535;29;20224;-69
2022/06/26 00:41:27;;;;;;;8.37;6.47;;;;;20.70;100637.00;;;;4950217;28;20305;-69
2022/06/26 00:44:14;;;;;;;8.33;6.03;;;;;20.70;100636.00;;;;4950202;29;20733;-71
2022/06/26 00:47:01;;;;;;;6.73;5.93;;;;;20.60;100647.00;;;;4949852;29;20841;-69
2022/06/26 00:49:50;;;;;;;8.70;6.83;;;;;20.60;100646.00;;;;4944406;29;20369;-70
2022/06/26 00:52:38;;;;;;;10.23;7.27;;;;;20.60;100655.00;;;;4949504;28;20228;-69
2022/06/26 00:55:24;;;;;;;7.97;5.77;;;;;20.50;100656.00;;;;4949653;28;20276;-68
2022/06/26 00:58:11;;;;;;;9.57;6.43;;;;;20.50;100662.00;;;;4949413;28;20605;-69
2022/06/26 01:00:58;;;;;;;8.03;6.67;;;;;20.50;100664.00;;;;4948080;28;20308;-70
2022/06/26 01:03:45;;;;;;;8.10;5.80;;;;;20.40;100649.00;;;;4944079;29;20233;-71
2022/06/26 01:06:34;;;;;;;11.50;6.90;;;;;20.50;100638.00;;;;4948744;28;20575;-70
2022/06/26 01:09:20;;;;;;;8.60;6.83;;;;;20.50;100628.00;;;;4949983;28;20220;-69
2022/06/26 01:12:07;;;;;;;8.63;6.30;;;;;20.40;100636.00;;;;4949231;28;20227;-69
2022/06/26 01:14:59;;;;;;;7.80;6.30;;;;;20.50;100633.00;;;;4948583;28;20219;-70
2022/06/26 01:17:46;;;;;;;7.60;6.07;;;;;20.40;100633.00;;;;4949986;28;20224;-72
2022/06/26 01:20:32;;;;;;;13.83;6.20;;;;;20.40;100647.00;;;;4950318;28;20231;-76
2022/06/26 01:23:20;;;;;;;7.73;5.87;;;;;20.40;100646.00;;;;4946585;28;20215;-70
2022/06/26 01:26:06;;;;;;;7.67;5.73;;;;;20.30;100652.00;;;;4947516;28;20344;-73
2022/06/26 01:28:53;;;;;;;9.03;6.10;;;;;20.30;100626.00;;;;4948619;29;20208;-70
2022/06/26 01:31:41;;;;;;;8.03;6.33;;;;;20.30;100631.00;;;;4944293;29;20296;-73
2022/06/26 01:34:28;;;;;;;8.33;5.87;;;;;20.30;100620.00;;;;4946616;28;20268;-69
2022/06/26 01:37:14;;;;;;;8.63;6.40;;;;;20.20;100630.00;;;;4948761;29;20248;-69
2022/06/26 01:40:02;;;;;;;7.13;4.97;;;;;20.20;100630.00;;;;4948247;28;22107;-68
2022/06/26 01:42:48;;;;;;;8.57;5.40;;;;;20.20;100631.00;;;;4943500;28;20272;-68
2022/06/26 01:45:34;;;;;;;6.60;4.60;;;;;20.10;100637.00;;;;4949562;29;20231;-68
2022/06/26 01:48:22;;;;;;;6.47;4.77;;;;;20.00;100633.00;;;;4946862;29;20213;-68
2022/06/26 01:51:09;;;;;;;4.53;4.07;;;;;20.00;100637.00;;;;4947521;29;20240;-68
2022/06/26 01:53:56;;;;;;;4.87;4.00;;;;;20.00;100667.00;;;;4943542;28;20272;-68
2022/06/26 01:56:44;;;;;;;6.03;4.13;;;;;19.90;100669.00;;;;4949426;29;20395;-69
2022/06/26 01:59:30;;;;;;;4.63;3.97;;;;;20.00;100657.00;;;;4947950;28;20306;-68
2022/06/26 02:02:16;;;;;;;4.43;3.90;;;;;19.90;100664.00;;;;4950199;29;20208;-68
2022/06/26 02:05:04;;;;;;;5.67;4.07;;;;;19.80;100670.00;;;;4943959;29;20217;-68
2022/06/26 02:07:51;;;;;;;7.20;4.13;;;;;19.80;100668.00;;;;4948815;28;20281;-71
2022/06/26 02:13:43;;;;;;;6.10;4.70;;;;;19.80;100682.00;;;;4947386;28;20212;-69
2022/06/26 02:16:30;;;;;;;6.90;4.67;;;;;19.80;100683.00;;;;4946756;28;20276;-70
2022/06/26 02:19:17;;;;;;;5.90;4.70;;;;;19.60;100687.00;;;;4945749;28;20415;-65
2022/06/26 02:22:04;;;;;;;7.60;6.13;;;;;19.60;100697.00;;;;4946718;28;20231;-68
2022/06/26 02:24:50;;;;;;;8.87;6.13;;;;;19.60;100683.00;;;;4948732;28;20377;-69
2022/06/26 02:27:36;;;;;;;7.10;5.77;;;;;19.40;100684.00;;;;4948667;28;20807;-68
2022/06/26 02:30:25;;;;;;;7.17;5.00;;;;;19.40;100689.00;;;;4946538;28;20235;-67
2022/06/26 02:33:12;;;;;;;7.47;4.97;;;;;19.40;100696.00;;;;4948253;28;20706;-69
2022/06/26 02:35:58;;;;;;;8.40;5.60;;;;;19.40;100697.00;;;;4942880;29;20352;-67
2022/06/26 02:38:44;;;;;;;12.00;5.70;;;;;19.20;100690.00;;;;4947355;28;20296;-66
2022/06/26 02:41:31;;;;;;;9.53;5.93;;;;;19.30;100704.00;;;;4948491;28;20251;-67
2022/06/26 02:44:17;;;;;;;8.57;6.50;;;;;19.30;100703.00;;;;4945255;29;20336;-67
2022/06/26 02:47:05;;;;;;;12.33;6.67;;;;;19.30;100715.00;;;;4945515;28;21053;-70
2022/06/26 02:49:51;;;;;;;8.57;6.07;;;;;19.20;100726.00;;;;4949191;29;20208;-69
2022/06/26 02:52:38;;;;;;;7.73;5.13;;;;;19.10;100727.00;;;;4947703;28;20211;-67
2022/06/26 02:55:25;;;;;;;8.20;5.70;;;;;19.10;100744.00;;;;4947993;28;21098;-69
2022/06/26 02:58:11;;;;;;;8.50;5.70;;;;;19.10;100744.00;;;;4943905;28;20239;-67
2022/06/26 03:00:57;;;;;;;10.03;5.77;;;;;19.10;100740.00;;;;4946624;28;20327;-68
2022/06/26 03:03:45;;;;;;;9.23;5.40;;;;;19.10;100736.00;;;;4948696;28;20216;-69
2022/06/26 03:06:31;;;;;;;8.43;6.13;;;;;19.20;100742.00;;;;4947474;28;20293;-70
2022/06/26 03:09:18;;;;;;;8.20;5.93;;;;;19.20;100733.00;;;;4947593;28;20219;-69
2022/06/26 03:12:05;;;;;;;9.87;6.47;;;;;19.20;100725.00;;;;4945632;29;20242;-71
2022/06/26 03:14:51;;;;;;;7.43;5.63;;;;;19.20;100736.00;;;;4941413;28;20578;-68
2022/06/26 03:17:38;;;;;;;9.50;6.27;;;;;19.20;100733.00;;;;4947834;29;20291;-68
2022/06/26 03:20:25;;;;;;;7.50;5.63;;;;;19.10;100733.00;;;;4946919;28;20235;-68
2022/06/26 03:23:11;;;;;;;7.97;5.90;;;;;19.20;100732.00;;;;4947199;28;20329;-74
2022/06/26 03:25:58;;;;;;;6.33;5.27;;;;;19.20;100723.00;;;;4944942;29;20348;-70
2022/06/26 03:28:44;;;;;;;7.43;5.60;;;;;19.10;100721.00;;;;4947036;28;20216;-72
2022/06/26 03:31:30;;;;;;;8.03;5.50;;;;;19.10;100732.00;;;;4947904;28;20239;-73
2022/06/26 03:34:16;;;;;;;6.33;5.07;;;;;19.10;100725.00;;;;4948286;29;20371;-72
2022/06/26 03:37:04;;;;;;;6.03;4.43;;;;;18.90;100738.00;;;;4943659;28;20208;-69
2022/06/26 03:39:50;;;;;;;5.07;4.00;;;;;18.90;100753.00;;;;4940884;29;20216;-69
2022/06/26 03:42:38;;;;;;;5.20;4.70;;;;;18.90;100751.00;;;;4947600;29;20216;-69
2022/06/26 03:45:24;;;;;;;5.60;4.30;;;;;18.90;100756.00;;;;4946847;28;20216;-68
2022/06/26 03:48:10;;;;;;;5.60;4.00;;;;;18.90;100769.00;;;;4947941;28;20224;-69
2022/06/26 03:50:57;;;;;;;5.80;4.10;;;;;18.80;100781.00;;;;4945766;28;20243;-68
2022/06/26 03:53:44;;;;;;;4.67;4.17;;;;;18.90;100781.00;;;;4947283;28;20216;-71
2022/06/26 03:56:30;;;;;;;5.97;4.07;;;;;18.90;100781.00;;;;4945491;28;20259;-68
2022/06/26 03:59:17;;;;;;;5.30;3.97;;;;;18.90;100793.00;;;;4947453;28;20232;-69
2022/06/26 04:02:03;;;;;;;6.17;4.47;;;;;18.80;100800.00;;;;4941739;28;20605;-67
2022/06/26 04:04:49;;;;;;;7.63;5.60;;;;;19.00;100812.00;;;;4939304;28;20231;-70
2022/06/26 04:07:36;;;;;;;6.67;5.07;;;;;18.90;100823.00;;;;4948027;28;20212;-70
2022/06/26 04:10:24;;;;;;;5.57;4.70;;;;;19.00;100817.00;;;;4952289;29;20701;-70
2022/06/26 04:13:12;;;;;;;12.50;7.20;;;;;19.20;100822.00;;;;4948715;28;20348;-68
2022/06/26 04:15:58;;;;;;;12.60;7.87;;;;;19.30;100830.00;;;;4947476;28;20231;-69
2022/06/26 04:18:45;;;;;;;12.43;7.77;;;;;19.30;100799.00;;;;4949789;28;20272;-70
2022/06/26 04:21:31;;;;;;;13.70;8.10;;;;;19.30;100802.00;;;;4949631;28;20236;-68
2022/06/26 04:24:17;;;;;;;13.77;7.97;;;;;19.30;100802.00;;;;4951991;29;20667;-69
2022/06/26 04:27:05;;;;;;;12.17;7.80;;;;;19.30;100814.00;;;;4948970;28;20215;-69
2022/06/26 04:29:52;;;;;;;11.93;7.57;;;;;19.30;100816.00;;;;4944624;28;20207;-68
2022/06/26 04:32:38;;;;;;;11.30;6.30;;;;;19.40;100808.00;;;;4949448;28;20212;-68
2022/06/26 04:35:24;;;;;;;12.03;7.97;;;;;19.50;100806.00;;;;4950451;29;20224;-69
2022/06/26 04:38:11;;;;;;;14.30;7.70;;;;;19.50;100821.00;;;;4948315;28;20240;-68
2022/06/26 04:40:58;;;;;;;15.20;7.97;;;;;19.60;100825.00;;;;4944085;28;20283;-69
2022/06/26 04:43:45;;;;;;;14.77;8.43;;;;;19.60;100829.00;;;;4950360;28;20216;-68
2022/06/26 04:46:31;;;;;;;13.93;8.23;;;;;19.70;100814.00;;;;4950335;28;20215;-74
2022/06/26 04:49:17;;;;;;;13.63;8.50;;;;;19.80;100818.00;;;;4949606;29;20207;-74
2022/06/26 04:52:04;;;;;;;16.17;8.80;;;;;19.90;100818.00;;;;4944563;29;20236;-72
2022/06/26 04:54:51;;;;;;;14.73;9.27;;;;;19.90;100817.00;;;;4950500;29;20347;-71
2022/06/26 04:57:38;;;;;;;16.00;8.70;;;;;19.90;100810.00;;;;4949753;28;20236;-71
2022/06/26 05:00:25;;;;;;;12.57;7.50;;;;;19.90;100799.00;;;;4949467;28;20324;-73
2022/06/26 05:03:12;;;;;;;12.20;7.83;;;;;20.00;100807.00;;;;4947887;29;20250;-68
2022/06/26 05:05:58;;;;;;;11.67;7.33;;;;;20.00;100807.00;;;;4949744;28;20408;-73
2022/06/26 05:08:45;;;;;;;11.43;6.93;;;;;20.10;100812.00;;;;4950197;28;20368;-68
2022/06/26 05:11:31;;;;;;;11.50;7.30;;;;;20.00;100805.00;;;;4947201;29;20577;-69
2022/06/26 05:14:19;;;;;;;13.40;7.77;;;;;20.00;100807.00;;;;4950642;28;20223;-70
2022/06/26 05:17:06;;;;;;;10.47;6.97;;;;;20.20;100817.00;;;;4950231;28;20215;-72
2022/06/26 05:19:52;;;;;;;12.47;7.43;;;;;20.20;100820.00;;;;4941411;28;20227;-69
2022/06/26 05:22:39;;;;;;;10.93;7.27;;;;;20.20;100832.00;;;;4948473;29;20729;-68
2022/06/26 05:25:25;;;;;;;13.53;6.80;;;;;20.20;100821.00;;;;4949253;28;20213;-68
2022/06/26 05:28:11;;;;;;;11.20;6.70;;;;;20.10;100826.00;;;;4944629;28;20232;-69
2022/06/26 05:30:58;;;;;;;10.90;6.83;;;;;20.10;100835.00;;;;4949140;28;20686;-69
2022/06/26 05:33:45;;;;;;;10.77;7.03;;;;;20.20;100833.00;;;;4949869;28;20213;-68
2022/06/26 05:36:31;;;;;;;11.53;6.60;;;;;20.20;100824.00;;;;4949941;28;20268;-69
2022/06/26 05:39:17;;;;;;;9.70;6.67;;;;;20.00;100834.00;;;;4948081;28;20252;-69
2022/06/26 05:42:04;;;;;;;9.83;6.50;;;;;20.00;100844.00;;;;4949002;28;20231;-69
2022/06/26 05:44:51;;;;;;;11.67;6.97;;;;;19.90;100846.00;;;;4949408;28;20577;-69
2022/06/26 05:47:37;;;;;;;10.97;7.37;;;;;19.90;100855.00;;;;4948445;28;20340;-71
2022/06/26 05:50:25;;;;;;;11.10;7.20;;;;;19.90;100863.00;;;;4949116;28;20231;-68
2022/06/26 05:53:12;;;;;;;12.53;7.50;;;;;20.00;100861.00;;;;4943464;28;20567;-70
2022/06/26 05:55:58;;;;;;;10.17;7.10;;;;;20.00;100868.00;;;;4948425;29;20689;-69
2022/06/26 05:58:45;;;;;;;11.60;7.57;;;;;20.10;100870.00;;;;4948631;28;20247;-72
2022/06/26 06:01:31;;;;;;;11.53;7.70;;;;;20.00;100873.00;;;;4947980;29;20236;-70
2022/06/26 06:04:17;;;;;;;11.20;8.10;;;;;20.00;100882.00;;;;4949526;28;20204;-68
2022/06/26 06:07:06;;;;;;;9.77;6.47;;;;;20.00;100874.00;;;;4945933;28;20211;-70
2022/06/26 06:09:52;;;;;;;10.13;6.70;;;;;20.10;100877.00;;;;4950432;28;20690;-68
2022/06/26 06:12:39;;;;;;;11.93;7.00;;;;;20.30;100874.00;;;;4950436;28;20197;-70
2022/06/26 06:15:25;;;;;;;9.90;7.37;;;;;20.40;100887.00;;;;4952039;28;20342;-70
2022/06/26 06:18:12;;;;;;;9.27;6.33;;;;;20.60;100890.00;;;;4950470;28;20335;-69
2022/06/26 06:20:59;;;;;;;10.87;6.50;;;;;20.70;100894.00;;;;4947038;29;20233;-73
2022/06/26 06:24:01;;;;;;;9.17;6.00;;;;;20.60;100898.00;;;;4943645;28;20239;-71
2022/06/26 06:26:48;;;;;;;9.47;6.43;;;;;20.60;100894.00;;;;4949830;28;20235;-71
2022/06/26 06:29:34;;;;;;;8.80;6.10;;;;;20.50;100893.00;;;;4951407;28;20268;-70
2022/06/26 06:32:20;;;;;;;8.03;6.63;;;;;20.50;100926.00;;;;4950304;28;20208;-71
2022/06/26 06:35:07;;;;;;;9.60;6.33;;;;;20.50;100919.00;;;;4950523;29;20272;-73
2022/06/26 06:37:54;;;;;;;9.03;6.70;;;;;20.60;100917.00;;;;4950305;29;20348;-68
2022/06/26 06:40:41;;;;;;;12.20;7.00;;;;;20.70;100922.00;;;;4949648;28;20284;-70
2022/06/26 06:43:28;;;;;;;10.70;6.87;;;;;20.70;100918.00;;;;4950465;29;20212;-69
2022/06/26 06:46:14;;;;;;;13.03;7.47;;;;;20.70;100923.00;;;;4945967;28;20215;-71
2022/06/26 06:49:01;;;;;;;8.20;6.10;;;;;20.70;100926.00;;;;4947740;28;20556;-72
2022/06/26 06:51:47;;;;;;;8.80;6.57;;;;;20.80;100934.00;;;;4949313;28;20315;-70
2022/06/26 06:54:33;;;;;;;10.90;6.17;;;;;20.80;100947.00;;;;4950307;28;20295;-74
2022/06/26 06:57:21;;;;;;;9.57;6.53;;;;;20.80;100950.00;;;;4950096;29;20222;-68
2022/06/26 07:00:08;;;;;;;11.87;7.40;;;;;20.70;100951.00;;;;4951435;28;20717;-68
2022/06/26 07:03:00;;;;;;;10.20;6.63;;;;;20.70;100955.00;;;;4946827;29;20212;-69
2022/06/26 07:05:46;;;;;;;10.03;6.97;;;;;20.70;100951.00;;;;4948714;28;20221;-70
2022/06/26 07:08:33;;;;;;;11.43;7.00;;;;;20.60;100956.00;;;;4947085;29;20256;-70
2022/06/26 07:11:19;;;;;;;9.00;6.70;;;;;20.60;100967.00;;;;4950761;29;20235;-70
2022/06/26 07:14:07;;;;;;;11.33;7.13;;;;;20.50;100964.00;;;;4948831;29;20211;-71
2022/06/26 07:16:53;;;;;;;8.30;6.53;;;;;20.60;100971.00;;;;4945543;29;20217;-73
2022/06/26 07:19:40;;;;;;;11.47;8.20;;;;;20.70;100967.00;;;;4972678;29;20321;-75
2022/06/26 07:22:26;;;;;;;8.30;6.43;;;;;20.80;100968.00;;;;4972421;28;20225;-73
2022/06/26 07:25:12;;;;;;;9.87;6.90;;;;;20.90;100972.00;;;;4966132;28;20225;-72
2022/06/26 07:27:59;;;;;;;9.17;6.93;;;;;21.20;100979.00;;;;4972373;28;20236;-74
2022/06/26 07:30:46;;;;;;;8.43;6.30;;;;;21.40;100982.00;;;;4972313;29;20231;-73
2022/06/26 07:36:37;;;;;;;7.20;5.77;;;;;21.60;100997.00;;;;4972281;28;20219;-72
2022/06/26 07:39:23;;;;;;;9.03;5.80;;;;;21.60;100992.00;;;;4964400;29;20240;-69
2022/06/26 07:42:09;;;;;;;6.83;5.37;;;;;21.60;100984.00;;;;4949277;28;20244;-71
2022/06/26 07:44:55;;;;;;;7.80;5.43;;;;;21.70;100987.00;;;;4951433;28;20614;-68
2022/06/26 07:47:43;;;;;;;9.53;5.77;;;;;21.80;100986.00;;;;4949519;28;20592;-68
2022/06/26 07:50:29;;;;;;;7.77;5.70;;;;;21.60;100985.00;;;;4950638;28;20368;-69
2022/06/26 07:53:16;;;;;;;7.47;5.50;;;;;21.50;100989.00;;;;4950102;28;20216;-69
2022/06/26 07:56:02;;;;;;;8.10;4.90;;;;;21.60;100996.00;;;;4948454;28;20886;-70
2022/06/26 07:58:48;;;;;;;6.40;4.80;;;;;21.60;101010.00;;;;4949581;28;20218;-70
2022/06/26 08:01:35;;;;;;;6.17;4.40;;;;;21.80;100998.00;;;;4949776;28;20237;-67
2022/06/26 08:04:22;;;;;;;16.07;9.67;;;;;22.00;100994.00;;;;4947705;28;20217;-72
2022/06/26 08:07:08;;;;;;;11.30;7.90;;;;;22.10;100991.00;;;;4946257;29;20221;-70
2022/06/26 08:09:55;;;;;;;5.10;4.27;;;;;22.10;100995.00;;;;4950375;29;20750;-73
2022/06/26 08:12:41;;;;;;;6.07;3.40;;;;;22.20;101010.00;;;;4950334;28;20216;-73
2022/06/26 08:15:27;;;;;;;4.20;3.43;;;;;22.30;101005.00;;;;4951887;29;20354;-74
2022/06/26 08:18:14;;;;;;;4.53;3.57;;;;;22.50;101017.00;;;;4945195;28;20233;-71
2022/06/26 08:22:00;;;;;;;3.37;3.07;;;;;22.60;101012.00;;;;4949863;29;20240;-69
2022/06/26 08:24:09;;;;;;;3.90;2.63;;;;;22.80;101010.00;;;;4951489;29;20218;-70
2022/06/26 08:27:00;;;;;;;3.03;2.73;;;;;23.00;101019.00;;;;4949962;28;20343;-73
2022/06/26 08:29:46;;;;;;;3.30;3.00;;;;;23.00;101007.00;;;;4948498;28;20220;-73
2022/06/26 08:32:33;;;;;;;3.63;3.33;;;;;22.70;101028.00;;;;4949400;28;20213;-66
2022/06/26 08:35:19;;;;;;;4.77;3.20;;;;;22.60;101019.00;;;;4950801;28;20235;-70
2022/06/26 08:38:07;;;;;;;3.87;2.63;;;;;22.40;101023.00;;;;4946155;29;20219;-69
2022/06/26 08:40:54;;;;;;;3.40;2.63;;;;;22.70;101026.00;;;;4949626;28;20835;-72
2022/06/26 08:43:41;;;;;;;2.80;2.40;;;;;22.80;101026.00;;;;4950779;28;20221;-70
2022/06/26 08:46:28;;;;;;;3.07;2.50;;;;;23.20;101028.00;;;;4944997;28;20214;-71
2022/06/26 08:49:16;;;;;;;3.07;2.73;;;;;23.40;101044.00;;;;4948969;28;20608;-71
2022/06/26 08:52:04;;;;;;;2.83;2.47;;;;;23.60;101044.00;;;;4950731;28;20239;-71
2022/06/26 08:54:53;;;;;;;2.57;1.90;;;;;23.60;101051.00;;;;4948972;29;20323;-71
2022/06/26 08:57:44;;;;;;;2.47;1.90;;;;;23.90;101052.00;;;;4950397;29;20226;-68
2022/06/26 09:00:30;;;;;;;3.20;1.50;;;;;23.80;101046.00;;;;4949602;28;20307;-72
2022/06/26 09:03:17;;;;;;;2.13;1.70;;;;;23.90;101041.00;;;;4944745;29;20203;-71
2022/06/26 09:06:04;;;;;;;2.70;1.70;;;;;24.00;101047.00;;;;4942933;28;20243;-71
2022/06/26 09:08:50;;;;;;;2.47;1.90;;;;;23.80;101057.00;;;;4948395;28;20771;-73
2022/06/26 09:11:40;;;;;;;2.40;1.90;;;;;24.00;101051.00;;;;4945826;28;20725;-70
2022/06/26 09:14:28;;;;;;;2.13;1.90;;;;;24.00;101058.00;;;;4948338;28;20292;-71
2022/06/26 09:17:14;;;;;;;2.13;1.90;;;;;24.30;101062.00;;;;4949295;28;20344;-74
2022/06/26 09:20:09;;;;;;;2.17;1.97;;;;;24.20;101061.00;;;;4949108;29;20244;-69
2022/06/26 09:22:56;;;;;;;3.53;2.70;;;;;24.10;101062.00;;;;4950478;28;20271;-71
2022/06/26 09:25:45;;;;;;;2.50;2.30;;;;;24.10;101069.00;;;;4950033;28;20204;-73
2022/06/26 09:28:32;;;;;;;2.80;2.10;;;;;24.20;101059.00;;;;4947286;28;20243;-68
2022/06/26 09:31:20;;;;;;;2.17;2.00;;;;;24.20;101070.00;;;;4947777;28;20729;-70
2022/06/26 09:34:07;;;;;;;2.03;1.80;;;;;24.10;101063.00;;;;4948555;28;20204;-70
2022/06/26 09:36:58;;;;;;;2.67;2.00;;;;;23.90;101061.00;;;;4947566;29;20854;-70
2022/06/26 09:39:44;;;;;;;3.30;2.10;;;;;23.90;101062.00;;;;4946890;28;20216;-69
2022/06/26 09:42:33;;;;;;;3.50;2.00;;;;;23.80;101062.00;;;;4947298;28;20244;-69
2022/06/26 09:45:22;;;;;;;2.47;1.93;;;;;23.70;101062.00;;;;4944707;28;20224;-68
2022/06/26 09:48:10;;;;;;;2.10;1.90;;;;;23.50;101051.00;;;;4945433;28;20303;-67
2022/06/26 09:50:58;;;;;;;2.27;2.03;;;;;23.50;101055.00;;;;4944447;28;20915;-68
2022/06/26 09:53:45;;;;;;;1.90;1.80;;;;;23.40;101061.00;;;;4944223;28;20227;-70
2022/06/26 09:56:32;;;;;;;2.97;2.13;;;;;23.50;101049.00;;;;4944998;28;20287;-68
2022/06/26 09:59:19;;;;;;;2.50;1.90;;;;;23.60;101054.00;;;;4945292;28;20268;-68
2022/06/26 10:08:22;;;;;;;1.90;1.70;;;;;23.90;101067.00;;;;4947377;29;20240;-68
2022/06/26 10:11:09;;;;;;;2.27;1.83;;;;;24.00;101062.00;;;;4945808;28;20228;-67
2022/06/26 10:13:59;;;;;;;2.30;1.90;;;;;24.00;101067.00;;;;4946892;29;20237;-68
2022/06/26 10:17:17;;;;;;;3.03;2.10;;;;;24.00;101071.00;;;;4946326;29;20216;-73
2022/06/26 10:20:06;;;;;;;2.53;1.80;;;;;24.20;101077.00;;;;4945304;29;20329;-70
2022/06/26 10:22:52;;;;;;;2.07;1.67;;;;;24.50;101079.00;;;;4946211;28;20228;-68
2022/06/26 10:25:45;;;;;;;2.13;1.70;;;;;24.50;101078.00;;;;4943121;28;20308;-70
2022/06/26 10:28:31;;;;;;;3.13;1.90;;;;;24.50;101074.00;;;;4946411;28;20208;-69
2022/06/26 10:31:17;;;;;;;2.00;1.80;;;;;24.60;101073.00;;;;4940822;29;20244;-68
2022/06/26 10:34:15;;;;;;;2.77;1.93;;;;;24.70;101088.00;;;;4946585;28;20207;-69
2022/06/26 10:37:04;;;;;;;2.00;1.80;;;;;24.70;101083.00;;;;4946488;28;20820;-69
2022/06/26 10:39:52;;;;;;;3.83;2.00;;;;;24.60;101085.00;;;;4943982;29;20224;-73
2022/06/26 10:42:52;;;;;;;2.10;1.60;;;;;24.40;101084.00;;;;4943992;28;20232;-71
2022/06/26 10:45:39;;;;;;;2.37;1.70;;;;;24.20;101068.00;;;;4946471;28;20223;-72
2022/06/26 10:48:26;;;;;;;2.00;1.70;;;;;24.20;101080.00;;;;4947367;29;20244;-68
2022/06/26 10:51:24;;;;;;;3.00;1.60;;;;;24.20;101095.00;;;;4943966;28;20240;-66
2022/06/26 10:54:21;;;;;;;2.17;1.67;;;;;24.10;101104.00;;;;4948153;28;20216;-71
2022/06/26 10:57:15;;;;;;;4.73;2.03;;;;;23.90;101095.00;;;;4948658;29;20223;-68
2022/06/26 11:00:03;;;;;;;3.27;1.70;;;;;23.80;101100.00;;;;4946438;28;20728;-69
2022/06/26 11:02:49;;;;;;;3.13;1.80;;;;;23.70;101103.00;;;;4947406;28;20209;-71
2022/06/26 11:05:36;;;;;;;2.07;1.80;;;;;23.50;101106.00;;;;4949293;28;20689;-72
2022/06/26 11:08:33;;;;;;;3.97;1.90;;;;;23.40;101102.00;;;;4947086;28;20689;-72
2022/06/26 11:11:23;;;;;;;2.77;1.77;;;;;23.30;101105.00;;;;4947459;28;20263;-70
2022/06/26 11:14:12;;;;;;;3.50;2.23;;;;;23.20;101107.00;;;;4947934;28;20588;-70
2022/06/26 11:16:58;;;;;;;2.73;1.97;;;;;23.20;101103.00;;;;4945178;28;20301;-69
2022/06/26 11:22:49;;;;;;;3.87;2.13;;;;;22.90;101111.00;;;;4946675;28;20238;-71
2022/06/26 11:25:37;;;;;;;4.00;2.60;;;;;22.90;101119.00;;;;4947828;28;20299;-70
2022/06/26 11:28:29;;;;;;;2.70;2.50;;;;;22.80;101107.00;;;;4942440;28;20290;-70
2022/06/26 11:31:20;;;;;;;3.47;2.37;;;;;22.90;101110.00;;;;4944489;28;20235;-70
2022/06/26 11:34:08;;;;;;;2.57;2.37;;;;;22.80;101101.00;;;;4945140;28;20227;-69
2022/06/26 11:36:55;;;;;;;2.40;2.20;;;;;22.80;101101.00;;;;4946349;29;20270;-70
2022/06/26 11:39:45;;;;;;;4.70;2.37;;;;;22.90;101104.00;;;;4944617;28;20216;-70
2022/06/26 11:42:32;;;;;;;4.10;2.27;;;;;23.00;101120.00;;;;4942527;28;20231;-71
2022/06/26 11:45:21;;;;;;;5.23;2.30;;;;;23.00;101117.00;;;;4945801;28;20211;-72
2022/06/26 11:48:12;;;;;;;2.70;2.43;;;;;22.90;101116.00;;;;4943718;28;20226;-71
2022/06/26 11:50:59;;;;;;;3.70;2.83;;;;;23.00;101112.00;;;;4944735;28;20272;-69
2022/06/26 11:53:48;;;;;;;4.70;3.03;;;;;23.20;101104.00;;;;4941783;28;20533;-73
2022/06/26 11:56:35;;;;;;;3.97;3.13;;;;;23.40;101100.00;;;;4944471;28;20224;-71
2022/06/26 11:59:22;;;;;;;3.80;3.03;;;;;23.70;101105.00;;;;4944947;29;20220;-70
2022/06/26 12:02:18;;;;;;;4.13;3.20;;;;;23.90;101093.00;;;;4944382;28;20243;-70
2022/06/26 12:05:05;;;;;;;5.90;4.83;;;;;24.10;101104.00;;;;4945475;28;20352;-69
2022/06/26 12:07:53;;;;;;;4.47;3.67;;;;;24.30;101109.00;;;;4944283;29;20224;-72
2022/06/26 12:10:40;;;;;;;4.43;4.03;;;;;24.40;101109.00;;;;4945018;29;20239;-71
2022/06/26 12:13:29;;;;;;;5.33;3.37;;;;;24.60;101104.00;;;;4939357;28;20231;-68
2022/06/26 12:16:18;;;;;;;6.17;4.10;;;;;24.50;101104.00;;;;4944444;28;20910;-69
2022/06/26 12:19:04;;;;;;;3.80;3.17;;;;;24.50;101105.00;;;;4945563;28;20228;-68
2022/06/26 12:21:52;;;;;;;3.87;2.90;;;;;24.40;101108.00;;;;4941879;28;20231;-69
2022/06/26 12:24:49;;;;;;;2.33;1.93;;;;;24.20;101101.00;;;;4946030;29;20629;-72
2022/06/26 12:27:36;;;;;;;2.40;1.93;;;;;24.00;101113.00;;;;4941940;28;20298;-70
2022/06/26 12:30:26;;;;;;;2.20;2.00;;;;;23.90;101096.00;;;;4942257;28;20266;-70
2022/06/26 12:33:15;;;;;;;3.77;2.60;;;;;23.80;101113.00;;;;4948935;29;20219;-69
2022/06/26 12:36:02;;;;;;;3.50;2.60;;;;;23.70;101117.00;;;;4946717;28;20209;-69
2022/06/26 12:38:48;;;;;;;3.53;2.97;;;;;23.70;101117.00;;;;4947266;28;20767;-68
2022/06/26 12:41:34;;;;;;;4.73;2.77;;;;;23.60;101121.00;;;;4943564;28;20239;-70
2022/06/26 12:44:20;;;;;;;4.17;2.60;;;;;23.60;101117.00;;;;4941440;28;20220;-68
2022/06/26 12:47:07;;;;;;;2.50;2.30;;;;;23.50;101120.00;;;;4948674;28;20220;-68
2022/06/26 12:49:55;;;;;;;3.43;2.30;;;;;23.50;101129.00;;;;4947874;28;20216;-69
2022/06/26 12:52:42;;;;;;;2.87;2.27;;;;;23.50;101139.00;;;;4948729;28;20223;-70
2022/06/26 12:55:28;;;;;;;3.73;2.43;;;;;23.40;101140.00;;;;4941769;28;20216;-71
2022/06/26 12:58:15;;;;;;;4.03;2.37;;;;;23.40;101140.00;;;;4946817;28;20259;-70
2022/06/26 13:01:01;;;;;;;9.27;2.83;;;;;23.30;101138.00;;;;4946394;28;20753;-72
2022/06/26 13:03:48;;;;;;;3.00;2.37;;;;;23.10;101141.00;;;;4948693;28;20216;-65
2022/06/26 13:06:36;;;;;;;4.03;2.97;;;;;23.10;101142.00;;;;4948075;28;20721;-72
2022/06/26 13:09:22;;;;;;;4.10;3.70;;;;;23.10;101142.00;;;;4945616;28;20218;-70
2022/06/26 13:12:10;;;;;;;3.30;3.00;;;;;23.20;101147.00;;;;4948101;28;20251;-70
2022/06/26 13:14:56;;;;;;;5.37;3.37;;;;;23.30;101153.00;;;;4945593;28;20212;-70
2022/06/26 13:17:44;;;;;;;7.53;3.80;;;;;23.40;101145.00;;;;4947328;28;20272;-70
2022/06/26 13:20:30;;;;;;;5.43;3.67;;;;;23.40;101137.00;;;;4949204;29;20271;-71
2022/06/26 13:23:18;;;;;;;4.27;3.87;;;;;23.40;101135.00;;;;4948382;28;20295;-69
2022/06/26 13:26:04;;;;;;;7.27;3.97;;;;;23.20;101125.00;;;;4950462;29;20705;-70
2022/06/26 13:28:51;;;;;;;5.07;3.80;;;;;23.20;101133.00;;;;4948765;28;20714;-68
2022/06/26 13:31:37;;;;;;;4.43;3.90;;;;;23.20;101125.00;;;;4949412;28;20251;-70
2022/06/26 13:34:24;;;;;;;5.13;4.20;;;;;23.10;101108.00;;;;4949382;28;20212;-69
2022/06/26 13:37:11;;;;;;;4.60;3.50;;;;;23.10;101107.00;;;;4949225;28;20347;-69
2022/06/26 13:39:58;;;;;;;5.87;3.93;;;;;23.30;101109.00;;;;4948611;28;20739;-67
2022/06/26 13:42:44;;;;;;;3.67;2.97;;;;;23.30;101115.00;;;;4948215;28;20240;-70
2022/06/26 13:45:31;;;;;;;4.47;3.50;;;;;23.40;101114.00;;;;4946820;28;20244;-71
2022/06/26 13:48:17;;;;;;;4.17;3.30;;;;;23.50;101110.00;;;;4948210;28;20219;-70
2022/06/26 13:51:03;;;;;;;3.27;2.97;;;;;23.70;101110.00;;;;4948320;28;20609;-68
2022/06/26 13:53:50;;;;;;;2.77;2.57;;;;;23.80;101114.00;;;;4945903;28;20772;-69
2022/06/26 13:56:38;;;;;;;4.83;2.70;;;;;24.10;101105.00;;;;4945107;29;20215;-72
2022/06/26 13:59:24;;;;;;;2.77;2.50;;;;;24.30;101104.00;;;;4948923;28;20944;-72
2022/06/26 14:02:14;;;;;;;2.80;2.40;;;;;24.60;101096.00;;;;4949193;28;20379;-69